KCSV

Crossville Memorial-Whitson Field Airport

Crossville, Tennessee, USA
METAR KCSV 200953Z AUTO 00000KT 6SM BR CLR 18/18 A3013 RMK AO2 SLP179 T01830178
Observed Flight Rules
Sep-20 @ 09:53 UTC (59 minutes ago) Visual Flight Rules
Visibility Clouds Conditions
6 miles
  • Clear skies
  • Mist
Temperatures Readings
Current 18°C / 64°F
Dewpoint 18°C / 64°F
Humidity 100%
Altimeter 30.13" Hg
Pressure 1017.9 hPa
Elevation 570
METAR KCSV 200953Z AUTO 00000KT 6SM BR CLR 18/18 A3013 RMK AO2 SLP179 T01830178
Observed Flight Rules
Sep-20 @ 09:53 UTC
(59 minutes ago)
VFR
Clouds
  • Clear skies
Conditions
  • Mist
Temperature Dewpoint
18°C / 64°F 18°C / 64°F
Humidity Altimeter Pressure
100% 30.13" Hg 1017.9 hPa